createdAt,value
2018-05-21T00:01:37.046Z,14.13
2018-05-21T00:04:04.539Z,13.17
2018-05-21T00:06:32.070Z,13.63
2018-05-21T00:08:59.557Z,13.00
2018-05-21T00:11:27.081Z,13.70
2018-05-21T00:13:54.577Z,13.50
2018-05-21T00:16:22.868Z,13.70
2018-05-21T00:18:51.121Z,13.67
2018-05-21T00:21:18.680Z,13.20
2018-05-21T00:23:46.173Z,14.87
2018-05-21T00:26:13.683Z,13.87
2018-05-21T00:28:41.225Z,14.60
2018-05-21T00:31:08.709Z,14.07
2018-05-21T00:33:36.233Z,13.87
2018-05-21T00:36:03.731Z,13.70
2018-05-21T00:38:31.261Z,13.10
2018-05-21T00:40:58.755Z,14.17
2018-05-21T00:43:26.289Z,14.60
2018-05-21T00:45:53.788Z,15.10
2018-05-21T00:48:21.305Z,14.20
2018-05-21T00:50:48.790Z,12.77
2018-05-21T00:53:17.090Z,14.60
2018-05-21T00:55:44.577Z,15.30
2018-05-21T00:58:12.097Z,15.60
2018-05-21T01:00:39.586Z,14.60
2018-05-21T01:03:07.137Z,15.97
2018-05-21T01:05:34.629Z,15.60
2018-05-21T01:08:02.190Z,16.53
2018-05-21T01:10:29.690Z,15.57
2018-05-21T01:12:57.176Z,15.83
2018-05-21T01:15:24.702Z,14.67
2018-05-21T01:17:52.205Z,15.17
2018-05-21T01:20:19.733Z,15.83
2018-05-21T01:22:47.229Z,15.37
2018-05-21T01:25:15.869Z,14.40
2018-05-21T01:27:43.357Z,16.00
2018-05-21T01:30:10.881Z,16.70
2018-05-21T01:32:39.141Z,16.23
2018-05-21T01:35:06.669Z,16.63
2018-05-21T01:37:34.158Z,16.77
2018-05-21T01:40:01.674Z,16.00
2018-05-21T01:42:29.165Z,17.17
2018-05-21T01:44:56.681Z,18.63
2018-05-21T01:47:24.194Z,16.30
2018-05-21T01:49:52.504Z,17.47
2018-05-21T01:52:19.994Z,16.47
2018-05-21T01:54:47.501Z,16.20
2018-05-21T01:57:15.007Z,16.70
2018-05-21T01:59:42.491Z,15.47
2018-05-21T02:02:10.007Z,16.83
2018-05-21T02:04:37.510Z,16.37
2018-05-21T02:07:05.839Z,16.90
2018-05-21T02:09:33.285Z,17.20
2018-05-21T02:12:00.785Z,15.50
2018-05-21T02:14:28.313Z,17.30
2018-05-21T02:16:55.796Z,17.87
2018-05-21T02:19:23.304Z,16.83
2018-05-21T02:21:50.790Z,15.13
2018-05-21T02:24:18.299Z,16.40
2018-05-21T02:26:46.555Z,16.00
2018-05-21T02:29:14.041Z,14.87
2018-05-21T02:31:41.627Z,14.60
2018-05-21T02:34:09.882Z,16.30
2018-05-21T02:36:37.365Z,15.60
2018-05-21T02:39:05.781Z,15.43
2018-05-21T02:41:34.046Z,15.97
2018-05-21T02:44:01.581Z,16.00
2018-05-21T02:46:29.074Z,16.03
2018-05-21T02:48:56.614Z,15.53
2018-05-21T02:51:24.099Z,16.03
2018-05-21T02:53:52.263Z,15.87
2018-05-21T02:56:19.757Z,16.80
2018-05-21T02:58:47.280Z,16.47
2018-05-21T03:01:14.786Z,15.90
2018-05-21T03:03:42.326Z,17.60
2018-05-21T03:06:09.822Z,16.90
2018-05-21T03:08:37.361Z,15.10
2018-05-21T03:11:04.854Z,16.63
2018-05-21T03:13:32.377Z,16.50
2018-05-21T03:15:59.869Z,15.50
2018-05-21T03:18:28.126Z,16.10
2018-05-21T03:20:55.663Z,16.63
2018-05-21T03:23:23.157Z,16.03
2018-05-21T03:25:50.677Z,16.93
2018-05-21T03:28:18.945Z,15.70
2018-05-21T03:30:46.454Z,17.07
2018-05-21T03:33:13.985Z,15.63
2018-05-21T03:35:41.502Z,14.93
2018-05-21T03:38:09.775Z,15.13
2018-05-21T03:40:37.306Z,14.77
2018-05-21T03:43:04.821Z,15.37
2018-05-21T03:45:32.337Z,15.80
2018-05-21T03:47:59.835Z,13.70
2018-05-21T03:50:27.362Z,15.00
2018-05-21T03:52:54.860Z,14.93
2018-05-21T03:55:22.385Z,14.53
2018-05-21T03:57:50.672Z,15.80
2018-05-21T04:00:30.893Z,13.73
2018-05-21T04:03:10.093Z,14.90
2018-05-21T04:05:38.398Z,14.57
2018-05-21T04:08:05.898Z,14.90
2018-05-21T04:10:33.393Z,13.87
2018-05-21T04:13:00.916Z,13.70
2018-05-21T04:15:28.414Z,12.43
2018-05-21T04:17:55.933Z,14.70
2018-05-21T04:20:23.426Z,13.53
2018-05-21T04:22:50.950Z,13.53
2018-05-21T04:25:18.437Z,12.73
2018-05-21T04:27:46.721Z,10.47
2018-05-21T04:30:14.222Z,9.93
2018-05-21T04:32:41.740Z,9.37
2018-05-21T04:35:09.222Z,8.70
2018-05-21T04:37:36.745Z,8.60
2018-05-21T04:40:04.221Z,8.47
2018-05-21T04:42:31.747Z,9.30
2018-05-21T04:44:59.242Z,8.60
2018-05-21T04:47:27.530Z,9.20
2018-05-21T04:49:55.820Z,9.27
2018-05-21T04:52:23.323Z,7.50
2018-05-21T04:54:50.849Z,7.83
2018-05-21T04:57:19.117Z,8.00
2018-05-21T04:59:46.655Z,8.27
2018-05-21T05:02:14.136Z,7.60
2018-05-21T05:04:41.671Z,6.80
2018-05-21T05:07:09.157Z,7.57
2018-05-21T05:09:36.684Z,6.93
2018-05-21T05:12:04.166Z,6.77
2018-05-21T05:14:32.450Z,7.17
2018-05-21T05:16:59.937Z,6.80
2018-05-21T05:19:28.227Z,6.80
2018-05-21T05:21:56.481Z,6.40
2018-05-21T05:24:24.008Z,6.70
2018-05-21T05:26:51.502Z,6.00
2018-05-21T05:29:19.015Z,5.90
2018-05-21T05:31:47.264Z,5.50
2018-05-21T05:34:14.813Z,5.00
2018-05-21T05:36:42.914Z,5.40
2018-05-21T05:39:10.396Z,5.67
2018-05-21T05:41:37.905Z,4.93
2018-05-21T05:44:05.385Z,4.97
2018-05-21T05:46:33.666Z,3.77
2018-05-21T05:49:01.918Z,4.07
2018-05-21T05:51:29.439Z,3.27
2018-05-21T05:53:57.689Z,3.17
2018-05-21T05:56:25.205Z,3.70
2018-05-21T05:58:53.441Z,3.30
2018-05-21T06:01:20.957Z,3.00
2018-05-21T06:03:49.194Z,3.30
2018-05-21T06:06:16.701Z,3.30
2018-05-21T06:08:44.185Z,2.63
2018-05-21T06:11:12.462Z,3.07
2018-05-21T06:13:40.011Z,2.17
2018-05-21T06:16:07.471Z,2.70
2018-05-21T06:18:34.951Z,2.53
2018-05-21T06:21:02.466Z,2.73
2018-05-21T06:23:30.713Z,2.67
2018-05-21T06:25:58.345Z,2.80
2018-05-21T06:28:25.733Z,2.50
2018-05-21T06:30:53.237Z,3.10
2018-05-21T06:33:20.719Z,2.00
2018-05-21T06:35:48.235Z,2.73
2018-05-21T06:38:15.769Z,2.80
2018-05-21T06:43:17.927Z,2.60
2018-05-21T06:45:45.405Z,2.73
2018-05-21T06:48:12.921Z,2.67
2018-05-21T06:50:40.455Z,2.23
2018-05-21T06:53:07.994Z,2.80
2018-05-21T06:55:35.469Z,2.57
2018-05-21T06:58:02.993Z,2.43
2018-05-21T07:00:30.478Z,2.40
2018-05-21T07:02:58.772Z,3.00
2018-05-21T07:05:26.260Z,2.57
2018-05-21T07:07:53.863Z,2.20
2018-05-21T07:10:21.280Z,2.53
2018-05-21T07:12:48.793Z,2.70
2018-05-21T07:15:16.272Z,2.80
2018-05-21T07:17:43.789Z,2.30
2018-05-21T07:20:11.275Z,2.90
2018-05-21T07:22:39.585Z,3.27
2018-05-21T07:25:07.074Z,2.43
2018-05-21T07:27:34.564Z,3.23
2018-05-21T07:30:02.082Z,2.70
2018-05-21T07:32:30.336Z,3.03
2018-05-21T07:34:57.854Z,2.97
2018-05-21T07:37:25.341Z,2.73
2018-05-21T07:39:52.854Z,2.67
2018-05-21T07:42:20.344Z,2.90
2018-05-21T07:44:48.725Z,3.03
2018-05-21T07:47:16.133Z,3.20
2018-05-21T07:49:43.653Z,2.70
2018-05-21T07:52:11.139Z,3.73
2018-05-21T07:54:38.664Z,3.43
2018-05-21T07:57:06.156Z,3.20
2018-05-21T07:59:33.686Z,2.67
2018-05-21T08:02:01.165Z,3.40
2018-05-21T08:04:28.695Z,3.53
2018-05-21T08:06:56.181Z,2.90
2018-05-21T08:09:23.697Z,3.87
2018-05-21T08:11:51.191Z,3.70
2018-05-21T08:14:18.729Z,3.90
2018-05-21T08:16:47.016Z,3.53
2018-05-21T08:19:14.498Z,3.70
2018-05-21T08:21:42.021Z,4.07
2018-05-21T08:24:09.501Z,3.50
2018-05-21T08:26:37.790Z,3.90
2018-05-21T08:29:06.038Z,3.80
2018-05-21T08:31:33.571Z,3.13
2018-05-21T08:34:01.113Z,2.80
2018-05-21T08:36:28.638Z,3.20
2018-05-21T08:38:56.129Z,3.90
2018-05-21T08:41:23.654Z,3.70
2018-05-21T08:43:51.142Z,3.70
2018-05-21T08:46:18.670Z,3.30
2018-05-21T08:48:46.982Z,3.87
2018-05-21T08:51:14.453Z,3.73
2018-05-21T08:53:41.943Z,3.90
2018-05-21T08:56:09.486Z,3.80
2018-05-21T08:58:37.827Z,3.10
2018-05-21T09:01:05.289Z,3.60
2018-05-21T09:03:32.785Z,4.07
2018-05-21T09:06:00.267Z,3.80
2018-05-21T09:08:27.787Z,3.70
2018-05-21T09:10:55.278Z,3.53
2018-05-21T09:13:22.799Z,4.37
2018-05-21T09:15:51.047Z,4.43
2018-05-21T09:18:18.567Z,3.83
2018-05-21T09:20:46.062Z,4.20
2018-05-21T09:23:13.601Z,3.80
2018-05-21T09:25:43.033Z,4.00
2018-05-21T09:28:10.653Z,4.10
2018-05-21T09:30:38.143Z,4.40
2018-05-21T09:33:05.675Z,3.63
2018-05-21T09:35:33.170Z,3.87
2018-05-21T09:38:00.698Z,3.67
2018-05-21T09:40:28.174Z,3.80
2018-05-21T09:42:55.697Z,4.27
2018-05-21T09:45:23.194Z,3.80
2018-05-21T09:47:51.486Z,3.17
2018-05-21T09:50:19.735Z,3.27
2018-05-21T09:52:47.245Z,3.27
2018-05-21T09:55:14.778Z,3.77
2018-05-21T09:57:42.270Z,4.37
2018-05-21T10:00:09.842Z,4.07
2018-05-21T10:02:37.342Z,3.50
2018-05-21T10:05:04.982Z,3.60
2018-05-21T10:07:32.501Z,3.93
2018-05-21T10:10:00.129Z,3.80
2018-05-21T10:12:28.454Z,3.80
2018-05-21T10:14:55.966Z,3.70
2018-05-21T10:17:23.447Z,3.77
2018-05-21T10:19:51.041Z,3.63
2018-05-21T10:22:18.533Z,2.73
2018-05-21T10:24:46.852Z,3.17
2018-05-21T10:27:14.343Z,3.70
2018-05-21T10:29:41.827Z,2.97
2018-05-21T10:32:09.337Z,2.27
2018-05-21T10:34:37.593Z,3.50
2018-05-21T10:37:05.161Z,3.43
2018-05-21T10:39:32.650Z,2.63
2018-05-21T10:42:00.174Z,2.67
2018-05-21T10:44:27.656Z,3.47
2018-05-21T10:46:55.242Z,2.83
2018-05-21T10:49:22.893Z,2.87
2018-05-21T10:51:50.429Z,3.00
2018-05-21T10:54:18.934Z,3.40
2018-05-21T10:56:57.816Z,3.00
2018-05-21T10:59:25.334Z,2.73
2018-05-21T11:01:52.864Z,3.90
2018-05-21T11:04:20.366Z,3.10
2018-05-21T11:06:48.645Z,2.60
2018-05-21T11:09:16.131Z,3.00
2018-05-21T11:11:43.691Z,2.80
2018-05-21T11:14:11.177Z,3.83
2018-05-21T11:16:39.422Z,3.30
2018-05-21T11:19:06.974Z,2.80
2018-05-21T11:21:34.458Z,3.50
2018-05-21T11:24:02.024Z,2.97
2018-05-21T11:26:29.598Z,4.10
2018-05-21T11:28:57.139Z,3.10
2018-05-21T11:31:24.626Z,3.30
2018-05-21T11:33:52.221Z,3.73
2018-05-21T11:36:19.696Z,3.60
2018-05-21T11:38:48.151Z,3.63
2018-05-21T11:41:15.630Z,2.83
2018-05-21T11:43:43.290Z,3.83
2018-05-21T11:46:11.579Z,3.03
2018-05-21T11:48:39.101Z,3.20
2018-05-21T11:51:06.623Z,3.60
2018-05-21T11:53:34.929Z,3.67
2018-05-21T11:56:02.417Z,2.87
2018-05-21T11:58:29.954Z,3.40
2018-05-21T12:00:57.462Z,4.27
2018-05-21T12:03:24.945Z,3.90
2018-05-21T12:05:52.453Z,2.30
2018-05-21T12:08:19.930Z,3.70
2018-05-21T12:10:47.449Z,3.37
2018-05-21T12:13:14.932Z,3.30
2018-05-21T12:15:42.445Z,3.10
2018-05-21T12:18:10.705Z,3.40
2018-05-21T12:20:38.237Z,3.63
2018-05-21T12:23:05.727Z,3.00
2018-05-21T12:25:33.258Z,3.50
2018-05-21T12:28:00.740Z,3.10
2018-05-21T12:30:28.253Z,2.87
2018-05-21T12:32:55.738Z,3.00
2018-05-21T12:35:23.217Z,2.50
2018-05-21T12:37:51.525Z,4.30
2018-05-21T12:40:19.819Z,2.93
2018-05-21T12:42:47.309Z,3.10
2018-05-21T12:45:14.829Z,3.60
2018-05-21T12:47:42.313Z,3.23
2018-05-21T12:50:09.861Z,3.30
2018-05-21T12:52:37.340Z,3.20
2018-05-21T12:55:04.827Z,3.20
2018-05-21T12:57:33.126Z,3.43
2018-05-21T13:00:01.401Z,3.10
2018-05-21T13:02:28.917Z,3.53
2018-05-21T13:04:56.421Z,3.03
2018-05-21T13:07:23.943Z,3.10
2018-05-21T13:09:52.186Z,3.17
2018-05-21T13:12:19.703Z,2.73
2018-05-21T13:14:47.189Z,3.57
2018-05-21T13:17:14.718Z,3.53
2018-05-21T13:19:42.204Z,4.27
2018-05-21T13:22:10.495Z,3.67
2018-05-21T13:24:37.989Z,3.03
2018-05-21T13:27:05.505Z,3.43
2018-05-21T13:29:32.989Z,3.10
2018-05-21T13:32:00.514Z,3.50
2018-05-21T13:34:27.990Z,3.63
2018-05-21T13:36:55.566Z,3.47
2018-05-21T13:39:23.042Z,3.00
2018-05-21T13:41:50.524Z,3.40
2018-05-21T13:44:18.045Z,3.50
2018-05-21T13:46:46.305Z,3.60
2018-05-21T13:49:13.828Z,3.30
2018-05-21T13:51:41.322Z,3.50
2018-05-21T13:54:08.847Z,3.17
2018-05-21T13:56:37.105Z,3.07
2018-05-21T13:59:04.657Z,3.00
2018-05-21T14:01:32.212Z,2.90
2018-05-21T14:03:59.740Z,3.20
2018-05-21T14:06:27.989Z,3.57
2018-05-21T14:08:55.513Z,2.40
2018-05-21T14:11:23.760Z,2.90
2018-05-21T14:13:51.281Z,3.10
2018-05-21T14:16:18.772Z,3.23
2018-05-21T14:18:46.296Z,3.17
2018-05-21T14:21:13.788Z,3.30
2018-05-21T14:23:42.070Z,3.50
2018-05-21T14:26:10.321Z,3.23
2018-05-21T14:28:37.846Z,2.87
2018-05-21T14:31:05.357Z,2.57
2018-05-21T14:33:32.840Z,2.80
2018-05-21T14:36:00.358Z,3.30
2018-05-21T14:38:27.844Z,2.97
2018-05-21T14:40:55.369Z,3.30
2018-05-21T14:43:23.633Z,3.20
2018-05-21T14:45:51.182Z,3.33
2018-05-21T14:48:18.739Z,2.70
2018-05-21T14:50:46.211Z,2.73
2018-05-21T14:53:13.693Z,3.03
2018-05-21T14:55:41.205Z,3.00
2018-05-21T14:58:08.688Z,2.83
2018-05-21T15:00:36.991Z,2.90
2018-05-21T15:03:05.242Z,2.90
2018-05-21T15:05:32.734Z,2.97
2018-05-21T15:08:00.245Z,2.60
2018-05-21T15:10:27.725Z,3.60
2018-05-21T15:12:55.241Z,3.37
2018-05-21T15:15:22.721Z,4.60
2018-05-21T15:17:50.236Z,4.20
2018-05-21T15:20:17.712Z,4.60
2018-05-21T15:22:45.289Z,3.37
2018-05-21T15:25:12.765Z,3.07
2018-05-21T15:27:40.349Z,4.83
2018-05-21T15:30:07.826Z,3.60
2018-05-21T15:32:35.337Z,3.17
2018-05-21T15:35:03.598Z,2.97
2018-05-21T15:37:31.134Z,3.20
2018-05-21T15:39:58.614Z,2.73
2018-05-21T15:42:26.113Z,2.80
2018-05-21T15:44:53.655Z,3.10
2018-05-21T15:47:21.153Z,2.80
2018-05-21T15:49:48.665Z,2.70
2018-05-21T15:52:16.916Z,3.23
2018-05-21T15:54:44.437Z,3.20
2018-05-21T15:57:11.929Z,4.27
2018-05-21T15:59:39.449Z,3.80
2018-05-21T16:02:07.705Z,3.10
2018-05-21T16:04:35.217Z,3.30
2018-05-21T16:07:03.469Z,3.70
2018-05-21T16:09:30.982Z,2.97
2018-05-21T16:11:59.249Z,2.80
2018-05-21T16:14:26.761Z,3.93
2018-05-21T16:16:54.250Z,3.07
2018-05-21T16:19:21.765Z,2.80
2018-05-21T16:21:49.249Z,3.03
2018-05-21T16:24:17.529Z,3.30
2018-05-21T16:26:45.018Z,4.50
2018-05-21T16:29:13.269Z,3.97
2018-05-21T16:31:40.793Z,2.90
2018-05-21T16:34:08.281Z,3.40
2018-05-21T16:36:35.798Z,2.80
2018-05-21T16:39:03.290Z,3.07
2018-05-21T16:41:31.625Z,2.83
2018-05-21T16:43:59.838Z,2.80
2018-05-21T16:46:27.365Z,3.00
2018-05-21T16:48:54.858Z,2.97
2018-05-21T16:51:22.378Z,2.90
2018-05-21T16:53:49.874Z,2.80
2018-05-21T16:56:17.390Z,2.70
2018-05-21T16:58:44.881Z,3.47
2018-05-21T17:01:12.403Z,3.40
2018-05-21T17:03:39.885Z,3.27
2018-05-21T17:06:07.382Z,3.03
2018-05-21T17:08:34.900Z,3.80
2018-05-21T17:11:02.406Z,3.00
2018-05-21T17:13:29.950Z,2.93
2018-05-21T17:15:57.436Z,3.10
2018-05-21T17:18:24.958Z,3.80
2018-05-21T17:20:53.218Z,3.17
2018-05-21T17:23:20.758Z,3.43
2018-05-21T17:25:48.252Z,3.37
2018-05-21T17:28:15.765Z,3.17
2018-05-21T17:30:44.016Z,3.50
2018-05-21T17:33:11.536Z,3.60
2018-05-21T17:35:39.083Z,3.20
2018-05-21T17:38:06.578Z,4.27
2018-05-21T17:40:34.831Z,3.57
2018-05-21T17:43:02.370Z,3.00
2018-05-21T17:45:29.859Z,3.30
2018-05-21T17:47:57.740Z,3.77
2018-05-21T17:50:25.279Z,3.53
2018-05-21T17:52:52.765Z,3.60
2018-05-21T17:55:20.288Z,3.53
2018-05-21T17:57:48.108Z,3.30
2018-05-21T18:00:16.483Z,3.50
2018-05-21T18:02:43.980Z,3.57
2018-05-21T18:05:11.485Z,3.70
2018-05-21T18:07:39.534Z,3.33
2018-05-21T18:10:07.047Z,3.43
2018-05-21T18:12:34.542Z,3.37
2018-05-21T18:15:02.795Z,3.40
2018-05-21T18:17:30.301Z,3.80
2018-05-21T18:19:58.548Z,3.70
2018-05-21T18:22:26.928Z,3.87
2018-05-21T18:24:54.410Z,3.90
2018-05-21T18:27:22.665Z,4.13
2018-05-21T18:29:50.181Z,3.57
2018-05-21T18:32:17.694Z,4.07
2018-05-21T18:34:45.339Z,4.70
2018-05-21T18:37:12.837Z,4.47
2018-05-21T18:39:40.333Z,3.27
2018-05-21T18:42:07.865Z,3.60
2018-05-21T18:44:36.118Z,3.60
2018-05-21T18:47:03.644Z,4.23
2018-05-21T18:49:31.235Z,4.50
2018-05-21T18:51:58.749Z,4.30
2018-05-21T18:54:26.233Z,4.00
2018-05-21T18:56:54.701Z,4.00
2018-05-21T18:59:22.243Z,4.07
2018-05-21T19:01:49.758Z,4.27
2018-05-21T19:04:17.249Z,4.27
2018-05-21T19:06:45.541Z,4.23
2018-05-21T19:09:13.811Z,4.10
2018-05-21T19:11:41.382Z,4.40
2018-05-21T19:14:08.865Z,3.90
2018-05-21T19:16:36.409Z,3.80
2018-05-21T19:19:03.920Z,4.60
2018-05-21T19:21:32.325Z,4.63
2018-05-21T19:23:59.813Z,4.30
2018-05-21T19:26:27.382Z,4.23
2018-05-21T19:28:54.898Z,4.60
2018-05-21T19:31:22.390Z,4.70
2018-05-21T19:33:50.722Z,4.20
2018-05-21T19:36:18.225Z,5.27
2018-05-21T19:38:45.738Z,4.10
2018-05-21T19:41:13.234Z,4.27
2018-05-21T19:43:40.757Z,4.17
2018-05-21T19:46:08.356Z,3.50
2018-05-21T19:48:35.875Z,4.27
2018-05-21T19:51:03.373Z,4.10
2018-05-21T19:53:30.891Z,4.63
2018-05-21T19:55:58.389Z,4.50
2018-05-21T19:58:25.913Z,5.00
2018-05-21T20:00:53.399Z,4.10
2018-05-21T20:03:20.934Z,4.13
2018-05-21T20:05:48.421Z,4.13
2018-05-21T20:08:16.677Z,4.87
2018-05-21T20:10:44.194Z,4.40
2018-05-21T20:13:11.669Z,4.40
2018-05-21T20:15:39.209Z,4.50
2018-05-21T20:18:07.161Z,4.27
2018-05-21T20:20:41.497Z,5.40
2018-05-21T20:23:09.007Z,4.30
2018-05-21T20:25:36.521Z,4.20
2018-05-21T20:28:04.009Z,3.90
2018-05-21T20:30:31.504Z,4.40
2018-05-21T20:32:58.986Z,4.97
2018-05-21T20:35:27.274Z,5.30
2018-05-21T20:37:54.761Z,5.40
2018-05-21T20:40:23.045Z,4.70
2018-05-21T20:42:51.295Z,4.60
2018-05-21T20:45:18.821Z,5.00
2018-05-21T20:47:46.346Z,4.23
2018-05-21T20:50:13.868Z,4.97
2018-05-21T20:52:41.418Z,4.90
2018-05-21T20:55:09.673Z,4.80
2018-05-21T20:57:37.205Z,4.60
2018-05-21T21:00:04.693Z,4.80
2018-05-21T21:02:32.218Z,5.20
2018-05-21T21:04:59.745Z,5.13
2018-05-21T21:07:27.819Z,4.57
2018-05-21T21:09:56.362Z,4.20
2018-05-21T21:12:23.885Z,5.10
2018-05-21T21:14:51.389Z,4.70
2018-05-21T21:17:19.689Z,5.70
2018-05-21T21:19:47.261Z,4.63
2018-05-21T21:22:14.773Z,5.00
2018-05-21T21:24:42.273Z,5.50
2018-05-21T21:27:09.927Z,4.90
2018-05-21T21:29:37.416Z,4.60
2018-05-21T21:32:04.945Z,4.30
2018-05-21T21:34:32.449Z,5.07
2018-05-21T21:36:59.985Z,5.47
2018-05-21T21:39:28.242Z,4.80
2018-05-21T21:41:55.885Z,5.07
2018-05-21T21:44:23.399Z,5.53
2018-05-21T21:46:50.881Z,5.13
2018-05-21T21:49:18.398Z,4.93
2018-05-21T21:51:45.890Z,5.10
2018-05-21T21:54:13.414Z,5.93
2018-05-21T21:56:41.667Z,5.60
2018-05-21T21:59:09.177Z,5.57
2018-05-21T22:01:37.429Z,4.23
2018-05-21T22:04:04.949Z,4.33
2018-05-21T22:06:32.437Z,4.10
2018-05-21T22:08:59.955Z,3.50
2018-05-21T22:11:27.429Z,4.60
2018-05-21T22:13:55.074Z,4.30
2018-05-21T22:16:22.614Z,3.37
2018-05-21T22:18:50.094Z,3.53
2018-05-21T22:21:17.627Z,3.70
2018-05-21T22:23:45.140Z,3.43
2018-05-21T22:26:12.664Z,3.97
2018-05-21T22:28:40.147Z,4.40
2018-05-21T22:31:07.676Z,3.60
2018-05-21T22:33:35.151Z,4.07
2018-05-21T22:36:02.669Z,3.77
2018-05-21T22:38:30.150Z,3.43
2018-05-21T22:40:57.661Z,3.60
2018-05-21T22:43:25.144Z,3.47
2018-05-21T22:45:52.665Z,3.93
2018-05-21T22:48:20.153Z,3.20
2018-05-21T22:50:47.674Z,3.23
2018-05-21T22:53:15.173Z,3.70
2018-05-21T22:55:42.707Z,3.63
2018-05-21T22:58:10.194Z,3.50
2018-05-21T23:00:38.446Z,3.30
2018-05-21T23:03:05.973Z,3.20
2018-05-21T23:05:33.454Z,3.70
2018-05-21T23:08:00.969Z,3.67
2018-05-21T23:10:28.454Z,3.30
2018-05-21T23:12:55.977Z,2.93
2018-05-21T23:15:23.693Z,4.03
2018-05-21T23:17:51.217Z,3.00
2018-05-21T23:20:18.702Z,2.97
2018-05-21T23:22:46.218Z,3.63
2018-05-21T23:25:13.700Z,3.80
2018-05-21T23:27:41.973Z,3.70
2018-05-21T23:30:09.481Z,4.13
2018-05-21T23:32:36.969Z,3.73
2018-05-21T23:35:04.497Z,4.00
2018-05-21T23:37:32.021Z,3.37
2018-05-21T23:39:59.523Z,4.23
2018-05-21T23:42:27.053Z,4.27
2018-05-21T23:44:54.539Z,4.60
2018-05-21T23:47:22.066Z,4.27
2018-05-21T23:49:49.573Z,3.90
2018-05-21T23:52:17.059Z,3.90
2018-05-21T23:54:44.577Z,3.47
2018-05-21T23:57:12.849Z,4.40
2018-05-21T23:59:40.369Z,3.37
